sensor_id;sensor_type;location;lat;lon;timestamp;pressure;altitude;pressure_sealevel;temperature;humidity
61010;BME280;46897;55.340;86.082;2023-04-01T00:00:19;102577.94;;;-12.32;67.65
61010;BME280;46897;55.340;86.082;2023-04-01T00:02:49;102650.66;;;-11.87;67.46
61010;BME280;46897;55.340;86.082;2023-04-01T00:05:19;102747.84;;;-11.36;67.79
61010;BME280;46897;55.340;86.082;2023-04-01T00:07:48;102747.63;;;-11.39;67.71
61010;BME280;46897;55.340;86.082;2023-04-01T00:10:17;102607.94;;;-12.19;67.65
61010;BME280;46897;55.340;86.082;2023-04-01T00:12:48;102636.09;;;-11.98;67.26
61010;BME280;46897;55.340;86.082;2023-04-01T00:15:18;102587.66;;;-12.17;67.27
61010;BME280;46897;55.340;86.082;2023-04-01T00:17:48;102769.00;;;-11.18;67.12
61010;BME280;46897;55.340;86.082;2023-04-01T00:20:17;102687.47;;;-11.75;67.54
61010;BME280;46897;55.340;86.082;2023-04-01T00:22:47;102616.94;;;-12.03;67.55
61010;BME280;46897;55.340;86.082;2023-04-01T00:25:17;102637.38;;;-11.83;67.29
61010;BME280;46897;55.340;86.082;2023-04-01T00:27:48;102767.31;;;-11.17;67.88
61010;BME280;46897;55.340;86.082;2023-04-01T00:30:18;102644.81;;;-11.76;67.76
61010;BME280;46897;55.340;86.082;2023-04-01T00:32:51;102792.81;;;-10.88;67.40
61010;BME280;46897;55.340;86.082;2023-04-01T00:35:20;102774.75;;;-11.10;67.41
61010;BME280;46897;55.340;86.082;2023-04-01T00:37:50;102626.13;;;-11.75;67.38
61010;BME280;46897;55.340;86.082;2023-04-01T00:40:28;102816.97;;;-10.74;66.91
61010;BME280;46897;55.340;86.082;2023-04-01T00:42:59;102635.63;;;-11.63;67.12
61010;BME280;46897;55.340;86.082;2023-04-01T00:45:33;102705.94;;;-11.17;67.10
61010;BME280;46897;55.340;86.082;2023-04-01T00:48:07;102588.09;;;-11.82;66.98
61010;BME280;46897;55.340;86.082;2023-04-01T00:50:40;102765.81;;;-10.84;66.95
61010;BME280;46897;55.340;86.082;2023-04-01T00:53:11;102678.31;;;-11.52;66.83
61010;BME280;46897;55.340;86.082;2023-04-01T00:55:45;102809.31;;;-10.64;66.84
61010;BME280;46897;55.340;86.082;2023-04-01T00:58:21;102821.47;;;-10.51;66.99
61010;BME280;46897;55.340;86.082;2023-04-01T01:00:53;102808.28;;;-10.56;66.46
61010;BME280;46897;55.340;86.082;2023-04-01T01:03:24;102705.41;;;-11.03;66.78
61010;BME280;46897;55.340;86.082;2023-04-01T01:06:09;102770.66;;;-10.67;67.07
61010;BME280;46897;55.340;86.082;2023-04-01T01:08:57;102789.09;;;-10.51;66.61
61010;BME280;46897;55.340;86.082;2023-04-01T01:11:39;102717.72;;;-10.89;66.40
61010;BME280;46897;55.340;86.082;2023-04-01T01:14:19;102716.81;;;-10.99;66.44
61010;BME280;46897;55.340;86.082;2023-04-01T01:17:02;102861.22;;;-10.14;66.28
61010;BME280;46897;55.340;86.082;2023-04-01T01:23:07;102840.97;;;-10.00;66.76
61010;BME280;46897;55.340;86.082;2023-04-01T01:25:54;102836.25;;;-10.06;66.03
61010;BME280;46897;55.340;86.082;2023-04-01T01:28:50;102870.41;;;-9.85;66.38
61010;BME280;46897;55.340;86.082;2023-04-01T01:31:33;102739.41;;;-10.42;66.43
61010;BME280;46897;55.340;86.082;2023-04-01T01:34:15;102866.00;;;-9.76;65.68
61010;BME280;46897;55.340;86.082;2023-04-01T01:36:57;102733.22;;;-10.34;65.93
61010;BME280;46897;55.340;86.082;2023-04-01T01:39:36;102833.06;;;-9.81;66.03
61010;BME280;46897;55.340;86.082;2023-04-01T01:42:13;102721.88;;;-10.26;66.14
61010;BME280;46897;55.340;86.082;2023-04-01T01:44:46;102769.72;;;-10.04;65.52
61010;BME280;46897;55.340;86.082;2023-04-01T01:47:19;102620.53;;;-10.66;65.83
61010;BME280;46897;55.340;86.082;2023-04-01T01:49:55;102581.31;;;-10.88;65.34
61010;BME280;46897;55.340;86.082;2023-04-01T01:52:27;102765.44;;;-9.61;66.16
61010;BME280;46897;55.340;86.082;2023-04-01T01:54:58;102749.94;;;-9.63;65.48
61010;BME280;46897;55.340;86.082;2023-04-01T01:57:30;102629.69;;;-10.26;65.34
61010;BME280;46897;55.340;86.082;2023-04-01T02:00:04;102710.16;;;-9.80;64.91
61010;BME280;46897;55.340;86.082;2023-04-01T15:14:01;102869.69;;;-6.85;55.09
61010;BME280;46897;55.340;86.082;2023-04-01T15:16:41;102901.88;;;-6.66;55.58
61010;BME280;46897;55.340;86.082;2023-04-01T15:19:23;102907.72;;;-6.69;55.48
61010;BME280;46897;55.340;86.082;2023-04-01T15:22:13;102902.44;;;-6.70;55.78
61010;BME280;46897;55.340;86.082;2023-04-01T15:25:00;102863.03;;;-6.95;55.94
61010;BME280;46897;55.340;86.082;2023-04-01T15:27:37;102898.75;;;-6.74;55.50
61010;BME280;46897;55.340;86.082;2023-04-01T15:30:39;102907.94;;;-6.66;55.20
61010;BME280;46897;55.340;86.082;2023-04-01T15:33:43;102892.53;;;-6.78;54.86
61010;BME280;46897;55.340;86.082;2023-04-01T15:36:28;102917.00;;;-6.71;54.60
61010;BME280;46897;55.340;86.082;2023-04-01T15:39:09;102908.63;;;-6.80;54.60
61010;BME280;46897;55.340;86.082;2023-04-01T15:42:04;102903.75;;;-6.89;54.28
61010;BME280;46897;55.340;86.082;2023-04-01T15:44:52;102853.91;;;-7.26;54.82
61010;BME280;46897;55.340;86.082;2023-04-01T15:47:36;102910.72;;;-7.00;55.35
61010;BME280;46897;55.340;86.082;2023-04-01T15:50:32;102915.44;;;-7.06;54.63
61010;BME280;46897;55.340;86.082;2023-04-01T15:53:13;102919.16;;;-7.14;54.85
61010;BME280;46897;55.340;86.082;2023-04-01T15:55:50;102897.78;;;-7.25;55.19
61010;BME280;46897;55.340;86.082;2023-04-01T15:58:37;102908.97;;;-7.24;55.52
61010;BME280;46897;55.340;86.082;2023-04-01T16:01:19;102909.47;;;-7.30;55.63
61010;BME280;46897;55.340;86.082;2023-04-01T16:03:57;102907.41;;;-7.34;56.23
61010;BME280;46897;55.340;86.082;2023-04-01T16:06:53;102904.97;;;-7.44;55.77
61010;BME280;46897;55.340;86.082;2023-04-01T16:09:46;102906.22;;;-7.51;55.51
61010;BME280;46897;55.340;86.082;2023-04-01T16:12:37;102903.75;;;-7.61;56.20
61010;BME280;46897;55.340;86.082;2023-04-01T16:15:19;102905.00;;;-7.56;55.80
61010;BME280;46897;55.340;86.082;2023-04-01T16:18:22;102896.28;;;-7.70;56.30
61010;BME280;46897;55.340;86.082;2023-04-01T16:21:02;102912.03;;;-7.65;55.66
61010;BME280;46897;55.340;86.082;2023-04-01T16:23:35;102909.00;;;-7.72;56.31
61010;BME280;46897;55.340;86.082;2023-04-01T16:26:08;102900.63;;;-7.81;56.68
61010;BME280;46897;55.340;86.082;2023-04-01T16:28:50;102908.31;;;-7.81;56.56
61010;BME280;46897;55.340;86.082;2023-04-01T16:31:34;102908.78;;;-7.86;56.18
61010;BME280;46897;55.340;86.082;2023-04-01T16:34:10;102897.16;;;-7.93;55.89
61010;BME280;46897;55.340;86.082;2023-04-01T16:36:48;102898.59;;;-7.97;56.86
61010;BME280;46897;55.340;86.082;2023-04-01T16:39:27;102911.88;;;-8.02;56.32
61010;BME280;46897;55.340;86.082;2023-04-01T16:45:06;102906.28;;;-8.20;57.23
61010;BME280;46897;55.340;86.082;2023-04-01T16:47:48;102891.47;;;-8.35;57.13
61010;BME280;46897;55.340;86.082;2023-04-01T16:50:20;102900.88;;;-8.35;57.10
61010;BME280;46897;55.340;86.082;2023-04-01T16:53:08;102860.91;;;-8.65;57.21
61010;BME280;46897;55.340;86.082;2023-04-01T16:55:49;102895.25;;;-8.53;57.48
61010;BME280;46897;55.340;86.082;2023-04-01T16:58:24;102852.38;;;-8.88;57.13
61010;BME280;46897;55.340;86.082;2023-04-01T17:01:00;102903.47;;;-8.69;57.42
61010;BME280;46897;55.340;86.082;2023-04-01T17:03:33;102880.63;;;-8.88;57.33
61010;BME280;46897;55.340;86.082;2023-04-01T17:06:16;102896.63;;;-8.80;57.64
61010;BME280;46897;55.340;86.082;2023-04-01T17:09:02;102876.97;;;-9.02;57.19
61010;BME280;46897;55.340;86.082;2023-04-01T17:11:38;102906.69;;;-8.94;57.59
61010;BME280;46897;55.340;86.082;2023-04-01T17:14:16;102889.69;;;-9.03;57.52
61010;BME280;46897;55.340;86.082;2023-04-01T17:17:12;102876.66;;;-9.17;57.42
61010;BME280;46897;55.340;86.082;2023-04-01T17:19:49;102898.44;;;-9.12;58.03
61010;BME280;46897;55.340;86.082;2023-04-01T17:22:32;102897.88;;;-9.19;57.36
61010;BME280;46897;55.340;86.082;2023-04-01T17:25:17;102895.72;;;-9.25;58.20
61010;BME280;46897;55.340;86.082;2023-04-01T17:27:51;102887.91;;;-9.37;58.27
61010;BME280;46897;55.340;86.082;2023-04-01T17:30:31;102893.69;;;-9.39;57.59
61010;BME280;46897;55.340;86.082;2023-04-01T17:36:09;102868.41;;;-9.67;57.70
61010;BME280;46897;55.340;86.082;2023-04-01T17:39:05;102894.69;;;-9.59;58.20
61010;BME280;46897;55.340;86.082;2023-04-01T17:41:43;102878.06;;;-9.75;58.63
61010;BME280;46897;55.340;86.082;2023-04-01T17:44:23;102884.06;;;-9.74;58.51
61010;BME280;46897;55.340;86.082;2023-04-01T17:47:09;102901.63;;;-9.69;58.04
61010;BME280;46897;55.340;86.082;2023-04-01T17:49:47;102896.88;;;-9.74;58.59
61010;BME280;46897;55.340;86.082;2023-04-01T17:52:23;102896.53;;;-9.79;58.71
61010;BME280;46897;55.340;86.082;2023-04-01T17:55:15;102906.28;;;-9.85;58.26
61010;BME280;46897;55.340;86.082;2023-04-01T17:57:54;102907.56;;;-9.90;58.93
61010;BME280;46897;55.340;86.082;2023-04-01T18:00:26;102901.41;;;-10.02;58.54
61010;BME280;46897;55.340;86.082;2023-04-01T18:03:36;102909.88;;;-10.03;58.39
61010;BME280;46897;55.340;86.082;2023-04-01T18:06:14;102890.16;;;-10.15;58.56
61010;BME280;46897;55.340;86.082;2023-04-01T18:08:50;102896.69;;;-10.18;58.62
61010;BME280;46897;55.340;86.082;2023-04-01T18:11:34;102901.06;;;-10.28;58.65
61010;BME280;46897;55.340;86.082;2023-04-01T18:14:27;102890.72;;;-10.39;58.69
61010;BME280;46897;55.340;86.082;2023-04-01T18:17:12;102889.47;;;-10.44;58.52
61010;BME280;46897;55.340;86.082;2023-04-01T18:19:53;102886.75;;;-10.46;58.90
61010;BME280;46897;55.340;86.082;2023-04-01T18:22:29;102895.84;;;-10.50;59.35
61010;BME280;46897;55.340;86.082;2023-04-01T18:25:14;102903.03;;;-10.56;58.97
61010;BME280;46897;55.340;86.082;2023-04-01T18:27:48;102899.28;;;-10.59;59.54
61010;BME280;46897;55.340;86.082;2023-04-01T18:30:27;102885.72;;;-10.69;59.02
61010;BME280;46897;55.340;86.082;2023-04-01T18:33:01;102865.88;;;-10.81;59.67
61010;BME280;46897;55.340;86.082;2023-04-01T18:35:47;102880.22;;;-10.73;59.43
61010;BME280;46897;55.340;86.082;2023-04-01T18:38:23;102883.81;;;-10.71;59.43
61010;BME280;46897;55.340;86.082;2023-04-01T18:41:12;102879.16;;;-10.85;59.45
61010;BME280;46897;55.340;86.082;2023-04-01T18:43:48;102880.31;;;-10.82;59.81
61010;BME280;46897;55.340;86.082;2023-04-01T18:46:30;102891.47;;;-10.81;59.73
61010;BME280;46897;55.340;86.082;2023-04-01T18:49:07;102858.81;;;-11.04;59.88
61010;BME280;46897;55.340;86.082;2023-04-01T18:51:46;102882.88;;;-10.92;59.35
61010;BME280;46897;55.340;86.082;2023-04-01T18:54:21;102869.41;;;-11.00;59.89
61010;BME280;46897;55.340;86.082;2023-04-01T18:57:04;102862.47;;;-11.11;59.53
61010;BME280;46897;55.340;86.082;2023-04-01T18:59:39;102876.72;;;-11.04;59.54
61010;BME280;46897;55.340;86.082;2023-04-01T19:02:20;102875.03;;;-11.14;59.85
61010;BME280;46897;55.340;86.082;2023-04-01T19:05:00;102872.94;;;-11.18;60.18
61010;BME280;46897;55.340;86.082;2023-04-01T19:07:45;102866.56;;;-11.23;60.39
61010;BME280;46897;55.340;86.082;2023-04-01T19:10:23;102879.59;;;-11.20;60.07
61010;BME280;46897;55.340;86.082;2023-04-01T19:13:12;102856.66;;;-11.39;60.23
61010;BME280;46897;55.340;86.082;2023-04-01T19:15:49;102884.69;;;-11.31;60.15
61010;BME280;46897;55.340;86.082;2023-04-01T19:18:49;102844.19;;;-11.55;60.10
61010;BME280;46897;55.340;86.082;2023-04-01T19:21:26;102877.72;;;-11.42;60.02
61010;BME280;46897;55.340;86.082;2023-04-01T19:24:18;102881.56;;;-11.47;60.17
61010;BME280;46897;55.340;86.082;2023-04-01T19:26:53;102867.59;;;-11.51;60.28
61010;BME280;46897;55.340;86.082;2023-04-01T19:29:36;102869.00;;;-11.54;60.04
61010;BME280;46897;55.340;86.082;2023-04-01T19:32:16;102867.06;;;-11.57;60.25
61010;BME280;46897;55.340;86.082;2023-04-01T19:34:59;102864.97;;;-11.61;60.51
61010;BME280;46897;55.340;86.082;2023-04-01T19:37:39;102857.22;;;-11.62;60.42
61010;BME280;46897;55.340;86.082;2023-04-01T19:40:28;102861.16;;;-11.66;60.05
61010;BME280;46897;55.340;86.082;2023-04-01T19:43:05;102845.16;;;-11.74;60.45
61010;BME280;46897;55.340;86.082;2023-04-01T19:45:42;102856.41;;;-11.72;60.42
61010;BME280;46897;55.340;86.082;2023-04-01T19:48:26;102856.13;;;-11.75;60.19
61010;BME280;46897;55.340;86.082;2023-04-01T19:51:07;102846.13;;;-11.82;60.25
61010;BME280;46897;55.340;86.082;2023-04-01T19:53:42;102826.00;;;-11.98;59.85
61010;BME280;46897;55.340;86.082;2023-04-01T19:56:16;102857.84;;;-11.84;60.33
61010;BME280;46897;55.340;86.082;2023-04-01T19:58:51;102822.16;;;-12.03;60.42
61010;BME280;46897;55.340;86.082;2023-04-01T20:01:30;102855.03;;;-11.87;60.56
61010;BME280;46897;55.340;86.082;2023-04-01T20:04:14;102854.78;;;-11.90;60.49
61010;BME280;46897;55.340;86.082;2023-04-01T20:06:52;102856.06;;;-11.95;61.35
61010;BME280;46897;55.340;86.082;2023-04-01T20:09:44;102830.28;;;-12.07;60.60
61010;BME280;46897;55.340;86.082;2023-04-01T20:12:27;102827.81;;;-12.16;60.99
61010;BME280;46897;55.340;86.082;2023-04-01T20:15:03;102854.75;;;-12.00;60.69
61010;BME280;46897;55.340;86.082;2023-04-01T20:17:41;102847.72;;;-12.03;60.59
61010;BME280;46897;55.340;86.082;2023-04-01T20:20:19;102813.06;;;-12.29;60.81
61010;BME280;46897;55.340;86.082;2023-04-01T20:23:21;102823.69;;;-12.24;60.83
61010;BME280;46897;55.340;86.082;2023-04-01T20:25:57;102844.28;;;-12.22;60.74
61010;BME280;46897;55.340;86.082;2023-04-01T20:28:35;102857.09;;;-12.12;61.15
61010;BME280;46897;55.340;86.082;2023-04-01T20:31:28;102856.94;;;-12.14;61.12
61010;BME280;46897;55.340;86.082;2023-04-01T20:34:31;102848.75;;;-12.20;60.88
61010;BME280;46897;55.340;86.082;2023-04-01T20:37:15;102863.19;;;-12.20;61.03
61010;BME280;46897;55.340;86.082;2023-04-01T20:40:28;102839.22;;;-12.31;61.26
61010;BME280;46897;55.340;86.082;2023-04-01T20:43:34;102845.22;;;-12.31;61.00
61010;BME280;46897;55.340;86.082;2023-04-01T20:46:10;102810.97;;;-12.52;61.23
61010;BME280;46897;55.340;86.082;2023-04-01T20:51:46;102839.91;;;-12.42;60.83
61010;BME280;46897;55.340;86.082;2023-04-01T20:54:37;102791.97;;;-12.74;60.65
61010;BME280;46897;55.340;86.082;2023-04-01T20:57:14;102840.88;;;-12.51;61.41
61010;BME280;46897;55.340;86.082;2023-04-01T20:59:58;102798.69;;;-12.75;61.37
61010;BME280;46897;55.340;86.082;2023-04-01T21:02:41;102814.59;;;-12.69;61.13
61010;BME280;46897;55.340;86.082;2023-04-01T21:08:29;102784.13;;;-12.95;61.16
61010;BME280;46897;55.340;86.082;2023-04-01T21:11:09;102837.88;;;-12.74;61.30
61010;BME280;46897;55.340;86.082;2023-04-01T21:13:56;102815.03;;;-12.92;61.58
61010;BME280;46897;55.340;86.082;2023-04-01T21:16:40;102832.97;;;-12.81;61.49
61010;BME280;46897;55.340;86.082;2023-04-01T21:22:24;102837.75;;;-12.84;61.58
61010;BME280;46897;55.340;86.082;2023-04-01T21:25:16;102808.91;;;-13.02;61.57
61010;BME280;46897;55.340;86.082;2023-04-01T21:28:01;102839.28;;;-12.87;61.42
61010;BME280;46897;55.340;86.082;2023-04-01T21:33:43;102843.50;;;-12.87;61.42
61010;BME280;46897;55.340;86.082;2023-04-01T21:36:24;102834.84;;;-12.98;61.81
61010;BME280;46897;55.340;86.082;2023-04-01T21:39:10;102845.31;;;-12.86;61.57
61010;BME280;46897;55.340;86.082;2023-04-01T21:41:56;102782.63;;;-13.20;61.73
61010;BME280;46897;55.340;86.082;2023-04-01T21:44:41;102829.41;;;-12.92;61.73
61010;BME280;46897;55.340;86.082;2023-04-01T21:50:54;102857.91;;;-12.88;61.92
61010;BME280;46897;55.340;86.082;2023-04-01T21:53:58;102843.56;;;-12.96;61.71
61010;BME280;46897;55.340;86.082;2023-04-01T21:57:07;102814.66;;;-13.14;61.69
61010;BME280;46897;55.340;86.082;2023-04-01T22:00:09;102853.59;;;-12.97;61.08
61010;BME280;46897;55.340;86.082;2023-04-01T22:05:59;102849.78;;;-13.11;61.69
61010;BME280;46897;55.340;86.082;2023-04-01T22:08:46;102867.88;;;-13.08;61.67
61010;BME280;46897;55.340;86.082;2023-04-01T22:11:23;102857.13;;;-13.14;61.56
61010;BME280;46897;55.340;86.082;2023-04-01T22:14:02;102866.59;;;-13.13;61.39
61010;BME280;46897;55.340;86.082;2023-04-01T22:16:40;102831.16;;;-13.38;62.08
61010;BME280;46897;55.340;86.082;2023-04-01T22:19:20;102854.16;;;-13.28;62.00
61010;BME280;46897;55.340;86.082;2023-04-01T22:21:56;102869.16;;;-13.22;61.79
61010;BME280;46897;55.340;86.082;2023-04-01T22:24:47;102879.19;;;-13.23;62.05
61010;BME280;46897;55.340;86.082;2023-04-01T22:27:24;102865.47;;;-13.34;61.91
61010;BME280;46897;55.340;86.082;2023-04-01T22:30:04;102883.44;;;-13.33;61.93
61010;BME280;46897;55.340;86.082;2023-04-01T22:32:40;102881.38;;;-13.37;62.04
61010;BME280;46897;55.340;86.082;2023-04-01T22:35:23;102876.47;;;-13.44;61.78
61010;BME280;46897;55.340;86.082;2023-04-01T22:38:05;102863.72;;;-13.53;62.07
61010;BME280;46897;55.340;86.082;2023-04-01T22:40:42;102874.34;;;-13.48;62.09
61010;BME280;46897;55.340;86.082;2023-04-01T22:43:20;102846.09;;;-13.69;61.98
61010;BME280;46897;55.340;86.082;2023-04-01T22:46:09;102868.09;;;-13.60;62.06
61010;BME280;46897;55.340;86.082;2023-04-01T22:48:46;102869.13;;;-13.58;62.03
61010;BME280;46897;55.340;86.082;2023-04-01T22:51:21;102875.72;;;-13.60;61.86
61010;BME280;46897;55.340;86.082;2023-04-01T22:54:02;102851.63;;;-13.73;62.18
61010;BME280;46897;55.340;86.082;2023-04-01T22:56:36;102857.00;;;-13.70;62.25
61010;BME280;46897;55.340;86.082;2023-04-01T22:59:11;102851.34;;;-13.76;62.51
61010;BME280;46897;55.340;86.082;2023-04-01T23:01:47;102864.19;;;-13.66;62.31
61010;BME280;46897;55.340;86.082;2023-04-01T23:04:23;102856.44;;;-13.76;62.36
61010;BME280;46897;55.340;86.082;2023-04-01T23:06:57;102859.72;;;-13.68;62.22
61010;BME280;46897;55.340;86.082;2023-04-01T23:09:28;102855.22;;;-13.71;62.31
61010;BME280;46897;55.340;86.082;2023-04-01T23:12:02;102858.50;;;-13.72;62.40
61010;BME280;46897;55.340;86.082;2023-04-01T23:14:40;102863.75;;;-13.70;62.45
61010;BME280;46897;55.340;86.082;2023-04-01T23:17:31;102855.69;;;-13.75;62.00
61010;BME280;46897;55.340;86.082;2023-04-01T23:20:13;102847.75;;;-13.78;62.49
61010;BME280;46897;55.340;86.082;2023-04-01T23:22:53;102861.22;;;-13.70;61.99
61010;BME280;46897;55.340;86.082;2023-04-01T23:25:33;102858.50;;;-13.72;62.60
61010;BME280;46897;55.340;86.082;2023-04-01T23:28:23;102847.44;;;-13.81;62.39
61010;BME280;46897;55.340;86.082;2023-04-01T23:30:53;102852.09;;;-13.77;62.34
61010;BME280;46897;55.340;86.082;2023-04-01T23:33:26;102885.19;;;-13.59;62.48
61010;BME280;46897;55.340;86.082;2023-04-01T23:35:59;102888.78;;;-13.57;62.95
61010;BME280;46897;55.340;86.082;2023-04-01T23:38:36;102887.44;;;-13.54;62.45
61010;BME280;46897;55.340;86.082;2023-04-01T23:41:07;102897.00;;;-13.51;62.62
61010;BME280;46897;55.340;86.082;2023-04-01T23:43:39;102906.56;;;-13.49;62.67
61010;BME280;46897;55.340;86.082;2023-04-01T23:46:12;102906.72;;;-13.47;62.77
61010;BME280;46897;55.340;86.082;2023-04-01T23:48:51;102883.69;;;-13.57;62.91
61010;BME280;46897;55.340;86.082;2023-04-01T23:51:23;102898.03;;;-13.49;62.94
61010;BME280;46897;55.340;86.082;2023-04-01T23:54:01;102875.72;;;-13.60;62.67
